createdAt,value
2022-07-29T00:00:29.184Z,45.32
2022-07-29T00:01:29.335Z,45.32
2022-07-29T00:02:29.632Z,45.34
2022-07-29T00:03:29.751Z,45.34
2022-07-29T00:04:29.999Z,45.45
2022-07-29T00:05:30.051Z,45.45
2022-07-29T00:06:30.232Z,45.45
2022-07-29T00:07:30.407Z,45.45
2022-07-29T00:08:30.562Z,45.45
2022-07-29T00:09:30.723Z,45.45
2022-07-29T00:10:30.878Z,45.45
2022-07-29T00:11:31.065Z,45.54
2022-07-29T00:12:31.277Z,45.54
2022-07-29T00:13:31.779Z,45.54
2022-07-29T00:14:31.587Z,45.54
2022-07-29T00:15:31.755Z,45.64
2022-07-29T00:16:31.973Z,45.64
2022-07-29T00:17:32.086Z,45.64
2022-07-29T00:18:32.247Z,45.64
2022-07-29T00:19:32.396Z,45.64
2022-07-29T00:20:32.587Z,45.74
2022-07-29T00:21:32.751Z,45.74
2022-07-29T00:22:32.914Z,45.74
2022-07-29T00:23:36.728Z,45.74
2022-07-29T00:24:33.249Z,45.84
2022-07-29T00:25:33.910Z,45.84
2022-07-29T00:26:33.642Z,45.84
2022-07-29T00:27:33.786Z,45.84
2022-07-29T00:28:33.984Z,45.86
2022-07-29T00:29:35.080Z,45.84
2022-07-29T00:30:34.322Z,45.86
2022-07-29T00:31:34.537Z,45.86
2022-07-29T00:32:34.641Z,45.96
2022-07-29T00:33:34.803Z,45.96
2022-07-29T00:34:34.962Z,45.96
2022-07-29T00:35:35.142Z,45.96
2022-07-29T00:36:35.302Z,45.96
2022-07-29T00:37:35.463Z,46.06
2022-07-29T00:38:35.624Z,46.06
2022-07-29T00:39:35.780Z,46.06
2022-07-29T00:40:35.986Z,46.16
2022-07-29T00:41:36.143Z,46.16
2022-07-29T00:42:36.305Z,46.16
2022-07-29T00:43:36.462Z,46.16
2022-07-29T00:44:36.667Z,46.16
2022-07-29T00:45:36.836Z,46.26
2022-07-29T00:46:37.056Z,46.26
2022-07-29T00:47:37.162Z,46.26
2022-07-29T00:48:37.394Z,46.26
2022-07-29T00:49:37.516Z,46.26
2022-07-29T00:50:37.668Z,46.26
2022-07-29T00:51:37.829Z,46.26
2022-07-29T00:52:37.992Z,46.26
2022-07-29T00:53:38.149Z,46.26
2022-07-29T00:54:43.917Z,46.36
2022-07-29T00:55:39.479Z,46.38
2022-07-29T00:56:38.654Z,46.38
2022-07-29T00:57:38.814Z,46.36
2022-07-29T00:58:38.979Z,46.38
2022-07-29T00:59:39.133Z,46.48
2022-07-29T01:00:39.395Z,46.48
2022-07-29T01:01:39.550Z,46.48
2022-07-29T01:02:39.676Z,46.48
2022-07-29T01:03:39.831Z,46.48
2022-07-29T01:04:40.033Z,46.48
2022-07-29T01:05:49.899Z,46.58
2022-07-29T01:06:41.360Z,46.58
2022-07-29T01:07:40.545Z,46.58
2022-07-29T01:08:40.703Z,46.58
2022-07-29T01:09:46.097Z,46.58
2022-07-29T01:10:42.093Z,46.68
2022-07-29T01:11:41.235Z,46.68
2022-07-29T01:12:41.399Z,46.68
2022-07-29T01:13:41.555Z,46.68
2022-07-29T01:14:41.745Z,46.68
2022-07-29T01:15:41.899Z,46.68
2022-07-29T01:16:43.171Z,46.78
2022-07-29T01:17:52.614Z,46.78
2022-07-29T01:18:43.458Z,46.78
2022-07-29T01:19:42.643Z,46.78
2022-07-29T01:20:42.818Z,46.88
2022-07-29T01:21:42.977Z,46.90
2022-07-29T01:22:43.144Z,46.88
2022-07-29T01:23:43.296Z,46.98
2022-07-29T01:24:43.455Z,47.00
2022-07-29T01:25:43.630Z,47.00
2022-07-29T01:26:43.780Z,47.00
2022-07-29T01:27:43.940Z,47.00
2022-07-29T01:28:44.100Z,47.10
2022-07-29T01:29:44.256Z,47.10
2022-07-29T01:30:44.443Z,47.10
2022-07-29T01:31:58.599Z,47.10
2022-07-29T01:32:45.786Z,47.20
2022-07-29T01:33:44.963Z,47.20
2022-07-29T01:34:45.141Z,47.30
2022-07-29T01:35:45.297Z,47.30
2022-07-29T01:36:45.495Z,47.30
2022-07-29T01:37:45.647Z,47.30
2022-07-29T01:38:45.838Z,47.30
2022-07-29T01:39:46.010Z,47.40
2022-07-29T01:40:46.164Z,47.40
2022-07-29T01:41:46.324Z,47.40
2022-07-29T01:42:46.519Z,47.40
2022-07-29T01:43:46.688Z,47.50
2022-07-29T01:44:46.856Z,47.50
2022-07-29T01:45:47.014Z,47.50
2022-07-29T01:46:47.223Z,47.60
2022-07-29T01:47:47.348Z,47.60
2022-07-29T01:48:47.672Z,47.62
2022-07-29T01:49:47.738Z,47.72
2022-07-29T01:50:47.867Z,47.72
2022-07-29T01:51:48.018Z,47.82
2022-07-29T01:52:48.199Z,47.72
2022-07-29T01:53:48.368Z,47.72
2022-07-29T01:54:48.514Z,47.82
2022-07-29T01:55:48.679Z,47.82
2022-07-29T01:56:48.851Z,47.92
2022-07-29T01:57:49.002Z,47.82
2022-07-29T01:58:49.161Z,47.92
2022-07-29T01:59:49.321Z,47.92
2022-07-29T02:00:49.483Z,47.92
2022-07-29T02:01:49.700Z,47.92
2022-07-29T02:02:50.814Z,48.02
2022-07-29T02:03:49.996Z,48.02
2022-07-29T02:04:50.238Z,48.11
2022-07-29T02:05:50.344Z,48.11
2022-07-29T02:06:50.555Z,48.11
2022-07-29T02:07:50.684Z,48.11
2022-07-29T02:08:50.843Z,48.11
2022-07-29T02:09:50.995Z,48.22
2022-07-29T02:10:51.160Z,48.22
2022-07-29T02:11:51.346Z,48.22
2022-07-29T02:12:51.500Z,48.22
2022-07-29T02:13:51.697Z,48.22
2022-07-29T02:14:51.849Z,48.22
2022-07-29T02:15:52.140Z,48.22
2022-07-29T02:16:52.205Z,48.22
2022-07-29T02:17:52.402Z,48.32
2022-07-29T02:18:52.568Z,48.32
2022-07-29T02:19:52.724Z,48.41
2022-07-29T02:20:52.889Z,48.41
2022-07-29T02:21:53.049Z,48.41
2022-07-29T02:22:53.223Z,48.41
2022-07-29T02:23:53.380Z,48.41
2022-07-29T02:24:53.536Z,48.44
2022-07-29T02:25:53.766Z,48.41
2022-07-29T02:26:53.891Z,48.52
2022-07-29T02:27:54.053Z,48.52
2022-07-29T02:28:54.210Z,48.54
2022-07-29T02:29:54.370Z,48.54
2022-07-29T02:30:54.601Z,48.54
2022-07-29T02:31:54.716Z,48.64
2022-07-29T02:32:54.883Z,48.64
2022-07-29T02:33:55.065Z,48.64
2022-07-29T02:34:55.218Z,48.64
2022-07-29T02:35:55.432Z,48.74
2022-07-29T02:36:55.587Z,48.74
2022-07-29T02:37:55.785Z,48.74
2022-07-29T02:38:55.946Z,48.74
2022-07-29T02:39:56.110Z,48.74
2022-07-29T02:40:56.297Z,48.74
2022-07-29T02:41:56.419Z,48.83
2022-07-29T02:42:56.615Z,48.83
2022-07-29T02:43:56.803Z,48.83
2022-07-29T02:44:56.956Z,48.83
2022-07-29T02:45:57.239Z,48.83
2022-07-29T02:46:57.344Z,48.83
2022-07-29T02:47:57.481Z,48.94
2022-07-29T02:48:57.695Z,48.94
2022-07-29T02:49:57.851Z,48.94
2022-07-29T02:50:58.021Z,48.94
2022-07-29T02:51:58.184Z,48.94
2022-07-29T02:52:58.331Z,49.04
2022-07-29T02:53:58.534Z,49.04
2022-07-29T02:54:58.712Z,49.13
2022-07-29T02:55:58.872Z,49.13
2022-07-29T02:56:59.023Z,49.13
2022-07-29T02:57:59.182Z,49.13
2022-07-29T02:58:59.346Z,49.13
2022-07-29T02:59:59.536Z,49.13
2022-07-29T03:00:59.693Z,49.13
2022-07-29T03:01:59.950Z,49.13
2022-07-29T03:03:00.027Z,49.23
2022-07-29T03:04:00.176Z,49.23
2022-07-29T03:05:00.430Z,49.23
2022-07-29T03:06:00.536Z,49.23
2022-07-29T03:07:00.702Z,49.23
2022-07-29T03:08:00.859Z,49.23
2022-07-29T03:09:01.014Z,49.23
2022-07-29T03:10:01.196Z,49.23
2022-07-29T03:11:01.350Z,49.23
2022-07-29T03:12:01.506Z,49.33
2022-07-29T03:13:01.657Z,49.23
2022-07-29T03:14:01.879Z,49.33
2022-07-29T03:15:02.032Z,49.33
2022-07-29T03:16:02.270Z,49.43
2022-07-29T03:17:02.368Z,49.33
2022-07-29T03:18:02.548Z,49.33
2022-07-29T03:19:02.721Z,49.33
2022-07-29T03:20:02.899Z,49.43
2022-07-29T03:21:03.098Z,49.43
2022-07-29T03:22:03.252Z,49.43
2022-07-29T03:23:03.414Z,49.43
2022-07-29T03:24:09.808Z,49.43
2022-07-29T03:25:04.775Z,49.43
2022-07-29T03:26:03.943Z,49.43
2022-07-29T03:27:04.123Z,49.53
2022-07-29T03:28:04.303Z,49.53
2022-07-29T03:29:04.479Z,49.53
2022-07-29T03:30:04.681Z,49.53
2022-07-29T03:31:04.934Z,49.53
2022-07-29T03:32:08.302Z,49.53
2022-07-29T03:33:05.193Z,49.55
2022-07-29T03:34:06.383Z,49.53
2022-07-29T03:35:05.574Z,49.53
2022-07-29T03:36:05.756Z,49.66
2022-07-29T03:37:05.927Z,49.66
2022-07-29T03:38:06.109Z,49.53
2022-07-29T03:39:06.290Z,49.55
2022-07-29T03:40:06.510Z,49.66
2022-07-29T03:41:06.647Z,49.55
2022-07-29T03:42:06.826Z,49.63
2022-07-29T03:43:07.004Z,49.66
2022-07-29T03:44:07.185Z,49.66
2022-07-29T03:45:07.374Z,49.63
2022-07-29T03:46:07.578Z,49.66
2022-07-29T03:47:07.678Z,49.63
2022-07-29T03:48:07.858Z,49.66
2022-07-29T03:49:08.110Z,49.66
2022-07-29T03:50:10.827Z,49.66
2022-07-29T03:51:08.415Z,49.66
2022-07-29T03:52:08.570Z,49.63
2022-07-29T03:53:08.728Z,49.66
2022-07-29T03:54:10.303Z,49.66
2022-07-29T03:55:09.082Z,49.66
2022-07-29T03:56:09.251Z,49.63
2022-07-29T03:57:09.412Z,49.63
2022-07-29T03:58:09.568Z,49.66
2022-07-29T03:59:09.762Z,49.66
2022-07-29T04:00:09.953Z,49.66
2022-07-29T04:01:10.110Z,49.66
2022-07-29T04:02:10.381Z,49.66
2022-07-29T04:03:11.804Z,49.63
2022-07-29T04:04:10.675Z,49.66
2022-07-29T04:05:10.856Z,49.63
2022-07-29T04:06:11.038Z,49.63
2022-07-29T04:07:11.196Z,49.63
2022-07-29T04:08:11.391Z,49.63
2022-07-29T04:09:11.557Z,49.63
2022-07-29T04:10:11.717Z,49.63
2022-07-29T04:11:11.911Z,49.63
2022-07-29T04:12:12.082Z,49.63
2022-07-29T04:13:12.247Z,49.63
2022-07-29T04:14:12.694Z,49.63
2022-07-29T04:15:12.624Z,49.63
2022-07-29T04:16:12.833Z,49.63
2022-07-29T04:17:12.975Z,49.63
2022-07-29T04:18:13.158Z,49.63
2022-07-29T04:19:13.324Z,49.63
2022-07-29T04:20:13.510Z,49.63
2022-07-29T04:21:13.655Z,49.63
2022-07-29T04:22:13.849Z,49.73
2022-07-29T04:23:14.034Z,49.63
2022-07-29T04:24:14.540Z,49.63
2022-07-29T04:25:14.386Z,49.73
2022-07-29T04:26:14.563Z,49.73
2022-07-29T04:27:14.742Z,49.73
2022-07-29T04:28:14.894Z,49.73
2022-07-29T04:29:15.084Z,49.73
2022-07-29T04:30:15.225Z,49.73
2022-07-29T04:31:15.476Z,49.73
2022-07-29T04:32:15.605Z,49.73
2022-07-29T04:33:15.785Z,49.73
2022-07-29T04:34:16.306Z,49.63
2022-07-29T04:35:16.136Z,49.73
2022-07-29T04:36:28.852Z,49.73
2022-07-29T04:37:17.507Z,49.73
2022-07-29T04:38:17.265Z,49.63
2022-07-29T04:39:22.170Z,49.73
2022-07-29T04:40:17.998Z,49.63
2022-07-29T04:41:17.177Z,49.73
2022-07-29T04:42:17.419Z,49.63
2022-07-29T04:43:22.476Z,49.53
2022-07-29T04:44:19.245Z,49.63
2022-07-29T04:45:22.519Z,49.63
2022-07-29T04:46:18.124Z,49.63
2022-07-29T04:47:18.242Z,49.63
2022-07-29T04:48:18.419Z,49.51
2022-07-29T04:49:18.661Z,49.41
2022-07-29T04:50:18.752Z,49.51
2022-07-29T04:51:18.935Z,49.51
2022-07-29T04:52:19.203Z,49.51
2022-07-29T04:53:19.274Z,49.41
2022-07-29T04:54:19.744Z,49.41
2022-07-29T04:55:19.612Z,49.41
2022-07-29T04:56:19.809Z,49.41
2022-07-29T04:57:19.994Z,49.41
2022-07-29T04:58:20.165Z,49.41
2022-07-29T04:59:20.353Z,49.31
2022-07-29T05:00:20.544Z,49.41
2022-07-29T05:01:20.810Z,49.41
2022-07-29T05:02:20.906Z,49.31
2022-07-29T05:03:21.034Z,49.31
2022-07-29T05:04:21.463Z,49.31
2022-07-29T05:05:21.388Z,49.31
2022-07-29T05:06:21.593Z,49.31
2022-07-29T05:07:21.727Z,49.11
2022-07-29T05:08:21.917Z,49.31
2022-07-29T05:09:22.097Z,49.31
2022-07-29T05:10:22.287Z,49.11
2022-07-29T05:11:24.983Z,49.21
2022-07-29T05:12:22.629Z,49.19
2022-07-29T05:13:22.812Z,49.31
2022-07-29T05:14:22.983Z,49.19
2022-07-29T05:15:23.159Z,49.08
2022-07-29T05:16:23.389Z,49.08
2022-07-29T05:17:23.500Z,49.08
2022-07-29T05:18:26.024Z,48.99
2022-07-29T05:19:23.874Z,48.89
2022-07-29T05:20:24.062Z,48.99
2022-07-29T05:21:24.232Z,48.89
2022-07-29T05:22:24.706Z,48.79
2022-07-29T05:23:24.571Z,48.69
2022-07-29T05:24:24.763Z,48.39
2022-07-29T05:25:24.936Z,48.59
2022-07-29T05:26:26.078Z,48.29
2022-07-29T05:27:25.278Z,48.47
2022-07-29T05:28:25.455Z,48.47
2022-07-29T05:29:43.270Z,48.37
2022-07-29T05:30:26.801Z,48.57
2022-07-29T05:31:26.025Z,48.17
2022-07-29T05:32:26.147Z,48.37
2022-07-29T05:33:36.229Z,48.27
2022-07-29T05:34:27.501Z,48.47
2022-07-29T05:35:26.652Z,48.47
2022-07-29T05:36:26.855Z,48.27
2022-07-29T05:37:27.006Z,47.97
2022-07-29T05:38:27.189Z,48.17
2022-07-29T05:39:47.239Z,48.37
2022-07-29T05:40:28.528Z,48.14
2022-07-29T05:41:27.708Z,48.14
2022-07-29T05:42:27.880Z,48.14
2022-07-29T05:43:28.029Z,48.14
2022-07-29T05:44:28.229Z,48.05
2022-07-29T05:45:28.373Z,48.14
2022-07-29T05:46:28.578Z,47.95
2022-07-29T05:47:28.738Z,47.85
2022-07-29T05:48:28.942Z,47.85
2022-07-29T05:49:29.212Z,47.85
2022-07-29T05:50:29.273Z,47.75
2022-07-29T05:51:29.465Z,47.95
2022-07-29T05:52:29.664Z,47.85
2022-07-29T05:53:29.820Z,48.05
2022-07-29T05:54:37.007Z,47.92
2022-07-29T05:55:30.145Z,47.92
2022-07-29T05:56:30.340Z,47.53
2022-07-29T05:57:30.549Z,47.83
2022-07-29T05:58:30.697Z,47.92
2022-07-29T05:59:30.888Z,47.53
2022-07-29T06:00:31.061Z,47.73
2022-07-29T06:01:31.246Z,47.73
2022-07-29T06:02:31.403Z,47.83
2022-07-29T06:03:31.538Z,47.63
2022-07-29T06:04:31.737Z,47.33
2022-07-29T06:05:31.881Z,47.83
2022-07-29T06:06:32.060Z,47.23
2022-07-29T06:07:32.269Z,47.53
2022-07-29T06:08:32.432Z,47.33
2022-07-29T06:09:36.050Z,47.53
2022-07-29T06:10:32.751Z,47.83
2022-07-29T06:11:32.942Z,47.50
2022-07-29T06:12:33.142Z,47.31
2022-07-29T06:13:33.312Z,47.71
2022-07-29T06:14:33.513Z,47.71
2022-07-29T06:15:33.719Z,47.61
2022-07-29T06:16:33.875Z,47.31
2022-07-29T06:17:34.023Z,47.50
2022-07-29T06:18:34.183Z,47.50
2022-07-29T06:19:34.355Z,47.61
2022-07-29T06:20:34.553Z,47.61
2022-07-29T06:21:34.777Z,47.50
2022-07-29T06:22:34.886Z,47.50
2022-07-29T06:23:35.084Z,47.49
2022-07-29T06:24:35.235Z,47.49
2022-07-29T06:25:35.398Z,47.49
2022-07-29T06:26:39.699Z,47.49
2022-07-29T06:27:35.757Z,47.38
2022-07-29T06:28:35.886Z,47.38
2022-07-29T06:29:36.085Z,47.38
2022-07-29T06:30:36.295Z,47.38
2022-07-29T06:31:36.423Z,47.38
2022-07-29T06:32:41.324Z,47.28
2022-07-29T06:33:37.760Z,47.26
2022-07-29T06:34:36.933Z,47.16
2022-07-29T06:35:38.750Z,47.16
2022-07-29T06:36:37.732Z,47.06
2022-07-29T06:37:37.452Z,46.97
2022-07-29T06:38:40.600Z,46.86
2022-07-29T06:39:38.787Z,46.86
2022-07-29T06:40:37.974Z,46.84
2022-07-29T06:41:38.101Z,46.84
2022-07-29T06:42:38.283Z,46.74
2022-07-29T06:43:50.251Z,46.74
2022-07-29T06:44:39.659Z,46.64
2022-07-29T06:45:38.891Z,46.64
2022-07-29T06:46:39.080Z,46.64
2022-07-29T06:47:39.161Z,46.64
2022-07-29T06:48:39.357Z,46.72
2022-07-29T06:49:39.505Z,46.72
2022-07-29T06:50:39.679Z,46.92
2022-07-29T06:51:39.835Z,46.82
2022-07-29T06:52:40.020Z,46.82
2022-07-29T06:53:40.206Z,46.82
2022-07-29T06:54:41.396Z,46.82
2022-07-29T06:55:40.579Z,46.82
2022-07-29T06:56:40.753Z,46.70
2022-07-29T06:57:40.924Z,46.60
2022-07-29T06:58:41.117Z,46.60
2022-07-29T06:59:41.289Z,46.50
2022-07-29T07:00:41.468Z,46.30
2022-07-29T07:01:41.702Z,46.30
2022-07-29T07:02:41.902Z,46.20
2022-07-29T07:03:42.020Z,46.08
2022-07-29T07:04:42.170Z,45.98
2022-07-29T07:05:42.348Z,45.98
2022-07-29T07:06:42.539Z,45.98
2022-07-29T07:07:42.720Z,45.89
2022-07-29T07:08:42.921Z,45.67
2022-07-29T07:09:43.091Z,45.47
2022-07-29T07:10:43.262Z,45.27
2022-07-29T07:11:43.441Z,45.27
2022-07-29T07:12:43.624Z,45.17
2022-07-29T07:13:43.830Z,45.17
2022-07-29T07:14:43.973Z,45.07
2022-07-29T07:15:44.147Z,44.97
2022-07-29T07:16:44.336Z,44.95
2022-07-29T07:17:44.494Z,44.85
2022-07-29T07:18:44.693Z,44.85
2022-07-29T07:19:44.855Z,44.75
2022-07-29T07:20:45.037Z,44.85
2022-07-29T07:21:45.217Z,44.85
2022-07-29T07:22:45.396Z,44.85
2022-07-29T07:23:45.600Z,44.85
2022-07-29T07:24:45.736Z,44.85
2022-07-29T07:25:45.923Z,44.95
2022-07-29T07:26:46.117Z,44.83
2022-07-29T07:27:46.280Z,44.83
2022-07-29T07:28:46.409Z,44.93
2022-07-29T07:29:46.592Z,44.93
2022-07-29T07:30:46.779Z,44.93
2022-07-29T07:31:47.100Z,44.83
2022-07-29T07:32:47.139Z,44.83
2022-07-29T07:33:47.320Z,44.83
2022-07-29T07:34:47.462Z,44.71
2022-07-29T07:35:47.641Z,44.51
2022-07-29T07:36:47.820Z,44.51
2022-07-29T07:37:48.020Z,44.32
2022-07-29T07:38:48.162Z,44.32
2022-07-29T07:39:48.346Z,44.22
2022-07-29T07:40:48.514Z,44.22
2022-07-29T07:41:48.698Z,44.22
2022-07-29T07:42:48.892Z,44.10
2022-07-29T07:43:49.035Z,44.10
2022-07-29T07:45:12.104Z,44.00
2022-07-29T07:45:50.427Z,43.90
2022-07-29T07:46:49.556Z,43.90
2022-07-29T07:47:49.754Z,43.90
2022-07-29T07:48:49.968Z,44.10
2022-07-29T07:49:50.098Z,44.29
2022-07-29T07:50:50.306Z,44.00
2022-07-29T07:51:51.179Z,43.70
2022-07-29T07:52:50.603Z,43.80
2022-07-29T07:53:50.789Z,43.88
2022-07-29T07:54:50.958Z,43.78
2022-07-29T07:56:09.922Z,43.48
2022-07-29T07:56:53.338Z,43.59
2022-07-29T07:57:51.473Z,43.88
2022-07-29T07:58:51.642Z,43.88
2022-07-29T07:59:51.830Z,43.98
2022-07-29T08:00:52.054Z,43.68
2022-07-29T08:01:55.999Z,43.68
2022-07-29T08:02:52.435Z,43.48
2022-07-29T08:03:52.558Z,43.38
2022-07-29T08:04:52.732Z,43.09
2022-07-29T08:05:52.994Z,42.87
2022-07-29T08:06:53.063Z,42.58
2022-07-29T08:07:53.275Z,42.68
2022-07-29T08:08:56.257Z,42.58
2022-07-29T08:09:53.571Z,42.58
2022-07-29T08:10:53.775Z,42.68
2022-07-29T08:11:53.927Z,42.77
2022-07-29T08:12:54.127Z,42.87
2022-07-29T08:13:54.293Z,42.87
2022-07-29T08:14:54.470Z,42.55
2022-07-29T08:15:54.654Z,42.65
2022-07-29T08:16:54.889Z,42.46
2022-07-29T08:17:55.057Z,42.46
2022-07-29T08:18:55.204Z,42.36
2022-07-29T08:19:55.368Z,42.36
2022-07-29T08:20:55.546Z,42.36
2022-07-29T08:21:56.019Z,42.26
2022-07-29T08:22:55.929Z,42.26
2022-07-29T08:24:00.750Z,42.46
2022-07-29T08:24:57.260Z,42.36
2022-07-29T08:25:56.442Z,42.24
2022-07-29T08:26:56.619Z,42.24
2022-07-29T08:27:56.825Z,42.24
2022-07-29T08:28:56.992Z,42.14
2022-07-29T08:29:57.188Z,41.85
2022-07-29T08:30:57.352Z,41.65
2022-07-29T08:31:57.592Z,41.55
2022-07-29T08:32:57.727Z,41.45
2022-07-29T08:33:57.879Z,41.25
2022-07-29T08:34:58.033Z,41.35
2022-07-29T08:35:58.222Z,41.25
2022-07-29T08:36:58.405Z,41.14
2022-07-29T08:37:58.584Z,41.33
2022-07-29T08:38:58.806Z,41.33
2022-07-29T08:39:58.939Z,41.24
2022-07-29T08:40:59.126Z,41.14
2022-07-29T08:41:59.403Z,41.24
2022-07-29T08:42:59.478Z,41.14
2022-07-29T08:43:59.676Z,41.14
2022-07-29T08:44:59.849Z,41.02
2022-07-29T08:46:00.083Z,40.92
2022-07-29T08:47:00.208Z,41.11
2022-07-29T08:48:00.388Z,40.72
2022-07-29T08:49:00.631Z,40.62
2022-07-29T08:50:00.749Z,40.61
2022-07-29T08:51:00.898Z,40.70
2022-07-29T08:52:01.081Z,40.41
2022-07-29T08:53:01.259Z,40.31
2022-07-29T08:54:01.454Z,40.09
2022-07-29T08:55:01.624Z,40.00
2022-07-29T08:56:01.775Z,39.90
2022-07-29T08:57:01.920Z,39.70
2022-07-29T08:58:02.077Z,39.50
2022-07-29T08:59:02.274Z,39.31
2022-07-29T09:00:07.097Z,39.40
2022-07-29T09:01:03.622Z,39.31
2022-07-29T09:02:02.810Z,39.31
2022-07-29T09:03:02.924Z,39.19
2022-07-29T09:04:03.238Z,39.19
2022-07-29T09:05:03.295Z,39.29
2022-07-29T09:06:03.482Z,38.90
2022-07-29T09:07:03.655Z,39.00
2022-07-29T09:08:03.837Z,39.00
2022-07-29T09:09:04.037Z,39.00
2022-07-29T09:10:04.208Z,39.00
2022-07-29T09:11:05.754Z,39.29
2022-07-29T09:12:04.549Z,39.19
2022-07-29T09:13:04.723Z,39.29
2022-07-29T09:14:04.919Z,39.29
2022-07-29T09:15:05.086Z,39.39
2022-07-29T09:16:09.179Z,39.29
2022-07-29T09:17:05.751Z,39.09
2022-07-29T09:18:05.605Z,38.98
2022-07-29T09:19:05.790Z,38.98
2022-07-29T09:20:05.935Z,39.07
2022-07-29T09:21:06.119Z,39.07
2022-07-29T09:22:06.313Z,39.07
2022-07-29T09:23:06.482Z,38.98
2022-07-29T09:24:06.663Z,38.68
2022-07-29T09:25:06.843Z,38.68
2022-07-29T09:26:07.024Z,38.48
2022-07-29T09:27:07.216Z,38.68
2022-07-29T09:28:07.364Z,38.58
2022-07-29T09:29:07.547Z,38.68
2022-07-29T09:30:07.745Z,38.56
2022-07-29T09:31:07.930Z,38.46
2022-07-29T09:32:08.160Z,38.37
2022-07-29T09:33:08.236Z,38.46
2022-07-29T09:34:08.417Z,38.27
2022-07-29T09:35:08.616Z,38.27
2022-07-29T09:36:08.787Z,38.06
2022-07-29T09:37:08.969Z,37.86
2022-07-29T09:38:09.150Z,37.96
2022-07-29T09:39:09.365Z,37.96
2022-07-29T09:40:11.783Z,37.84
2022-07-29T09:41:09.672Z,37.84
2022-07-29T09:42:09.859Z,37.74
2022-07-29T09:43:10.039Z,37.33
2022-07-29T09:44:10.241Z,37.13
2022-07-29T09:45:10.390Z,36.94
2022-07-29T09:46:12.277Z,36.84
2022-07-29T09:47:10.778Z,37.04
2022-07-29T09:48:10.913Z,36.84
2022-07-29T09:49:11.147Z,36.82
2022-07-29T09:50:11.263Z,36.82
2022-07-29T09:51:11.443Z,36.63
2022-07-29T09:52:11.614Z,36.53
2022-07-29T09:53:11.803Z,36.51
2022-07-29T09:54:11.956Z,36.32
2022-07-29T09:55:13.644Z,36.32
2022-07-29T09:56:13.294Z,36.22
2022-07-29T09:57:12.495Z,36.22
2022-07-29T09:58:12.626Z,35.83
2022-07-29T09:59:12.809Z,35.83
2022-07-29T10:00:12.988Z,35.81
2022-07-29T10:01:13.217Z,35.52
2022-07-29T10:02:13.348Z,35.52
2022-07-29T10:03:13.563Z,35.61
2022-07-29T10:04:13.659Z,35.42
2022-07-29T10:05:13.839Z,35.52
2022-07-29T10:06:14.009Z,35.32
2022-07-29T10:07:14.213Z,35.32
2022-07-29T10:08:14.352Z,35.32
2022-07-29T10:09:14.531Z,35.22
2022-07-29T10:10:14.801Z,35.40
2022-07-29T10:11:14.890Z,35.40
2022-07-29T10:12:15.086Z,35.32
2022-07-29T10:13:16.340Z,35.32
2022-07-29T10:14:15.418Z,35.22
2022-07-29T10:15:15.593Z,35.22
2022-07-29T10:16:15.836Z,35.22
2022-07-29T10:17:15.945Z,35.32
2022-07-29T10:18:16.084Z,35.22
2022-07-29T10:19:16.263Z,35.32
2022-07-29T10:20:16.654Z,35.32
2022-07-29T10:21:34.909Z,35.13
2022-07-29T10:22:43.329Z,35.03
2022-07-29T10:23:18.000Z,34.93
2022-07-29T10:24:17.179Z,34.64
2022-07-29T10:25:17.343Z,34.64
2022-07-29T10:26:17.518Z,34.83
2022-07-29T10:27:17.712Z,34.64
2022-07-29T10:28:17.881Z,34.75
2022-07-29T10:29:18.023Z,34.84
2022-07-29T10:30:18.199Z,34.84
2022-07-29T10:31:18.437Z,34.75
2022-07-29T10:32:18.550Z,34.84
2022-07-29T10:33:18.694Z,34.93
2022-07-29T10:34:18.872Z,35.04
2022-07-29T10:35:19.062Z,35.03
2022-07-29T10:36:19.241Z,35.03
2022-07-29T10:37:19.466Z,34.74
2022-07-29T10:38:19.593Z,34.64
2022-07-29T10:39:22.363Z,34.44
2022-07-29T10:40:19.973Z,34.52
2022-07-29T10:41:20.145Z,34.42
2022-07-29T10:42:20.391Z,33.94
2022-07-29T10:43:21.487Z,34.23
2022-07-29T10:44:22.889Z,34.01
2022-07-29T10:45:21.447Z,34.11
2022-07-29T10:46:21.046Z,34.41
2022-07-29T10:47:21.262Z,34.41
2022-07-29T10:48:21.395Z,34.42
2022-07-29T10:49:24.729Z,34.33
2022-07-29T10:50:21.739Z,34.42
2022-07-29T10:51:21.882Z,34.42
2022-07-29T10:52:26.570Z,34.83
2022-07-29T10:53:23.255Z,34.44
2022-07-29T10:54:22.418Z,34.44
2022-07-29T10:55:22.599Z,34.64
2022-07-29T10:56:22.760Z,34.94
2022-07-29T10:57:25.934Z,34.84
2022-07-29T10:58:24.090Z,34.94
2022-07-29T10:59:23.565Z,34.94
2022-07-29T11:00:23.456Z,34.84
2022-07-29T11:01:37.156Z,34.96
2022-07-29T11:02:41.360Z,34.96
2022-07-29T11:03:24.997Z,35.06
2022-07-29T11:04:24.135Z,35.06
2022-07-29T11:05:24.295Z,35.06
2022-07-29T11:06:26.891Z,35.06
2022-07-29T11:07:24.624Z,35.25
2022-07-29T11:08:26.377Z,35.27
2022-07-29T11:09:25.722Z,35.37
2022-07-29T11:10:26.977Z,35.37
2022-07-29T11:11:29.755Z,35.47
2022-07-29T11:12:25.487Z,35.66
2022-07-29T11:13:25.606Z,35.86
2022-07-29T11:14:26.556Z,35.96
2022-07-29T11:15:28.431Z,35.96
2022-07-29T11:16:26.156Z,36.06
2022-07-29T11:17:26.328Z,36.25
2022-07-29T11:18:26.498Z,36.25
2022-07-29T11:19:30.504Z,36.84
2022-07-29T11:20:26.819Z,36.65
2022-07-29T11:21:26.981Z,36.74
2022-07-29T11:22:28.180Z,36.74
2022-07-29T11:23:27.356Z,36.84
2022-07-29T11:24:28.968Z,36.53
2022-07-29T11:25:42.366Z,36.53
2022-07-29T11:26:28.861Z,36.55
2022-07-29T11:27:28.604Z,36.63
2022-07-29T11:28:28.364Z,36.72
2022-07-29T11:29:28.474Z,36.94
2022-07-29T11:30:28.564Z,38.00
2022-07-29T11:31:28.754Z,38.00
2022-07-29T11:32:29.201Z,38.68
2022-07-29T11:33:54.207Z,38.49
2022-07-29T11:34:30.268Z,38.00
2022-07-29T11:35:38.008Z,38.29
2022-07-29T11:36:30.645Z,38.59
2022-07-29T11:37:29.816Z,38.39
2022-07-29T11:38:32.079Z,38.08
2022-07-29T11:39:36.803Z,38.18
2022-07-29T11:40:31.317Z,37.96
2022-07-29T11:41:31.857Z,37.77
2022-07-29T11:42:32.955Z,37.35
2022-07-29T11:43:30.859Z,37.02
2022-07-29T11:44:31.012Z,36.62
2022-07-29T11:45:43.923Z,36.31
2022-07-29T11:46:32.384Z,36.31
2022-07-29T11:47:31.595Z,36.52
2022-07-29T11:48:32.718Z,36.43
2022-07-29T11:49:33.325Z,36.43
2022-07-29T11:50:32.046Z,36.52
2022-07-29T11:51:32.786Z,36.82
2022-07-29T11:52:32.371Z,36.62
2022-07-29T11:53:33.391Z,36.62
2022-07-29T11:54:57.336Z,36.52
2022-07-29T11:55:34.008Z,36.24
2022-07-29T11:56:33.101Z,36.24
2022-07-29T11:57:36.362Z,36.44
2022-07-29T11:58:33.408Z,36.24
2022-07-29T11:59:34.804Z,36.24
2022-07-29T12:00:33.756Z,36.26
2022-07-29T12:01:33.952Z,36.26
2022-07-29T12:02:37.088Z,36.36
2022-07-29T12:03:35.840Z,36.46
2022-07-29T12:04:34.467Z,36.36
2022-07-29T12:05:36.433Z,36.36
2022-07-29T12:06:34.844Z,36.36
2022-07-29T12:07:35.449Z,36.36
2022-07-29T12:08:35.170Z,36.47
2022-07-29T12:09:40.149Z,36.67
2022-07-29T12:10:36.541Z,36.87
2022-07-29T12:11:35.702Z,36.75
2022-07-29T12:12:35.874Z,36.75
2022-07-29T12:13:37.239Z,36.75
2022-07-29T12:14:36.202Z,36.85
2022-07-29T12:15:46.246Z,36.75
2022-07-29T12:16:37.535Z,36.85
2022-07-29T12:17:36.849Z,36.94
2022-07-29T12:18:36.877Z,36.83
2022-07-29T12:19:37.041Z,36.83
2022-07-29T12:20:37.243Z,37.12
2022-07-29T12:21:37.413Z,36.93
2022-07-29T12:22:38.595Z,36.83
2022-07-29T12:23:37.765Z,36.73
2022-07-29T12:24:37.955Z,36.83
2022-07-29T12:25:38.114Z,36.82
2022-07-29T12:26:38.291Z,36.83
2022-07-29T12:27:40.245Z,36.93
2022-07-29T12:28:38.654Z,36.83
2022-07-29T12:29:38.801Z,36.72
2022-07-29T12:30:39.970Z,37.01
2022-07-29T12:31:43.140Z,37.11
2022-07-29T12:32:40.415Z,37.01
2022-07-29T12:33:39.472Z,37.11
2022-07-29T12:34:39.654Z,37.01
2022-07-29T12:35:39.879Z,36.82
2022-07-29T12:36:40.002Z,36.91
2022-07-29T12:37:41.272Z,37.01
2022-07-29T12:38:40.384Z,37.01
2022-07-29T12:39:40.513Z,37.01
2022-07-29T12:40:40.692Z,37.11
2022-07-29T12:41:40.882Z,36.91
2022-07-29T12:42:41.064Z,36.82
2022-07-29T12:43:41.285Z,37.01
2022-07-29T12:44:41.415Z,36.91
2022-07-29T12:45:41.574Z,36.91
2022-07-29T12:46:41.826Z,36.91
2022-07-29T12:47:41.928Z,36.91
2022-07-29T12:48:42.186Z,36.91
2022-07-29T12:49:42.258Z,36.91
2022-07-29T12:50:42.447Z,36.91
2022-07-29T12:51:42.597Z,36.91
2022-07-29T12:52:42.788Z,36.82
2022-07-29T12:53:43.207Z,36.70
2022-07-29T12:54:43.140Z,36.80